sensor_id;sensor_type;location;lat;lon;timestamp;pressure;altitude;pressure_sealevel;temperature;humidity
34482;BME280;20720;48.886;9.388;2023-11-22T00:02:15;98615.81;;;9.05;100.00
34482;BME280;20720;48.886;9.388;2023-11-22T00:04:40;98625.72;;;9.39;100.00
34482;BME280;20720;48.886;9.388;2023-11-22T00:07:05;98630.97;;;9.24;100.00
34482;BME280;20720;48.886;9.388;2023-11-22T00:09:31;98631.13;;;8.13;100.00
34482;BME280;20720;48.886;9.388;2023-11-22T00:11:57;98627.66;;;8.87;100.00
34482;BME280;20720;48.886;9.388;2023-11-22T00:14:25;98636.69;;;8.84;100.00
34482;BME280;20720;48.886;9.388;2023-11-22T00:16:51;98636.59;;;8.03;100.00
34482;BME280;20720;48.886;9.388;2023-11-22T00:19:16;98646.47;;;7.93;100.00
34482;BME280;20720;48.886;9.388;2023-11-22T00:21:43;98662.75;;;8.03;100.00
34482;BME280;20720;48.886;9.388;2023-11-22T00:24:09;98652.88;;;8.36;100.00
34482;BME280;20720;48.886;9.388;2023-11-22T00:26:34;98651.81;;;7.77;100.00
34482;BME280;20720;48.886;9.388;2023-11-22T00:28:59;98642.59;;;8.34;100.00
34482;BME280;20720;48.886;9.388;2023-11-22T00:31:25;98638.38;;;7.80;100.00
34482;BME280;20720;48.886;9.388;2023-11-22T00:33:50;98642.25;;;7.92;100.00
34482;BME280;20720;48.886;9.388;2023-11-22T00:36:16;98643.16;;;8.22;100.00
34482;BME280;20720;48.886;9.388;2023-11-22T00:38:41;98635.91;;;8.09;100.00
34482;BME280;20720;48.886;9.388;2023-11-22T00:41:07;98649.53;;;7.13;100.00
34482;BME280;20720;48.886;9.388;2023-11-22T00:43:33;98637.47;;;7.73;100.00
34482;BME280;20720;48.886;9.388;2023-11-22T00:45:58;98641.31;;;8.08;100.00
34482;BME280;20720;48.886;9.388;2023-11-22T00:48:23;98659.16;;;8.04;100.00
34482;BME280;20720;48.886;9.388;2023-11-22T00:50:49;98661.88;;;7.27;100.00
34482;BME280;20720;48.886;9.388;2023-11-22T00:53:14;98673.03;;;7.82;100.00
34482;BME280;20720;48.886;9.388;2023-11-22T00:55:40;98669.66;;;7.43;100.00
34482;BME280;20720;48.886;9.388;2023-11-22T00:58:06;98688.41;;;8.08;100.00
34482;BME280;20720;48.886;9.388;2023-11-22T01:00:32;98702.63;;;8.88;100.00
34482;BME280;20720;48.886;9.388;2023-11-22T01:02:57;98707.53;;;8.91;100.00
34482;BME280;20720;48.886;9.388;2023-11-22T01:05:23;98715.78;;;9.02;100.00
34482;BME280;20720;48.886;9.388;2023-11-22T01:07:49;98714.34;;;8.17;100.00
34482;BME280;20720;48.886;9.388;2023-11-22T01:10:15;98710.06;;;8.24;100.00
34482;BME280;20720;48.886;9.388;2023-11-22T01:12:40;98699.34;;;8.57;100.00
34482;BME280;20720;48.886;9.388;2023-11-22T01:15:07;98718.28;;;8.44;100.00
34482;BME280;20720;48.886;9.388;2023-11-22T01:17:33;98727.28;;;9.16;100.00
34482;BME280;20720;48.886;9.388;2023-11-22T01:19:59;98734.03;;;9.69;100.00
34482;BME280;20720;48.886;9.388;2023-11-22T01:22:25;98732.78;;;7.93;100.00
34482;BME280;20720;48.886;9.388;2023-11-22T01:24:50;98729.63;;;8.36;100.00
34482;BME280;20720;48.886;9.388;2023-11-22T01:27:15;98738.19;;;8.22;100.00
34482;BME280;20720;48.886;9.388;2023-11-22T01:29:41;98743.22;;;8.32;100.00
34482;BME280;20720;48.886;9.388;2023-11-22T01:32:07;98733.44;;;8.48;100.00
34482;BME280;20720;48.886;9.388;2023-11-22T01:34:33;98749.72;;;8.96;100.00
34482;BME280;20720;48.886;9.388;2023-11-22T01:36:58;98751.94;;;9.21;100.00
34482;BME280;20720;48.886;9.388;2023-11-22T01:39:23;98749.66;;;7.91;100.00
34482;BME280;20720;48.886;9.388;2023-11-22T01:41:49;98752.03;;;7.31;100.00
34482;BME280;20720;48.886;9.388;2023-11-22T01:44:15;98750.78;;;7.11;100.00
34482;BME280;20720;48.886;9.388;2023-11-22T01:46:41;98742.19;;;8.10;100.00
34482;BME280;20720;48.886;9.388;2023-11-22T01:49:09;98761.38;;;7.72;100.00
34482;BME280;20720;48.886;9.388;2023-11-22T01:51:35;98776.25;;;8.02;100.00
34482;BME280;20720;48.886;9.388;2023-11-22T01:54:00;98785.28;;;8.76;100.00
34482;BME280;20720;48.886;9.388;2023-11-22T01:56:27;98805.03;;;8.02;100.00
34482;BME280;20720;48.886;9.388;2023-11-22T01:58:54;98797.25;;;7.86;100.00
34482;BME280;20720;48.886;9.388;2023-11-22T02:01:20;98806.75;;;8.48;100.00
34482;BME280;20720;48.886;9.388;2023-11-22T02:03:46;98819.38;;;8.06;100.00
34482;BME280;20720;48.886;9.388;2023-11-22T02:06:15;98811.81;;;8.19;100.00
34482;BME280;20720;48.886;9.388;2023-11-22T02:08:41;98816.22;;;8.19;100.00
34482;BME280;20720;48.886;9.388;2023-11-22T02:11:08;98828.13;;;7.36;100.00
34482;BME280;20720;48.886;9.388;2023-11-22T02:13:34;98830.41;;;7.47;100.00
34482;BME280;20720;48.886;9.388;2023-11-22T02:15:59;98830.44;;;7.86;100.00
34482;BME280;20720;48.886;9.388;2023-11-22T02:18:27;98845.88;;;8.73;100.00
34482;BME280;20720;48.886;9.388;2023-11-22T02:20:52;98854.69;;;8.10;100.00
34482;BME280;20720;48.886;9.388;2023-11-22T02:23:18;98855.16;;;7.83;100.00
34482;BME280;20720;48.886;9.388;2023-11-22T02:25:43;98851.00;;;8.35;100.00
34482;BME280;20720;48.886;9.388;2023-11-22T02:28:08;98866.75;;;8.27;100.00
34482;BME280;20720;48.886;9.388;2023-11-22T02:30:34;98873.16;;;6.49;100.00
34482;BME280;20720;48.886;9.388;2023-11-22T02:32:59;98867.47;;;7.50;100.00
34482;BME280;20720;48.886;9.388;2023-11-22T02:35:25;98873.06;;;7.31;100.00
34482;BME280;20720;48.886;9.388;2023-11-22T02:37:52;98873.91;;;7.95;100.00
34482;BME280;20720;48.886;9.388;2023-11-22T02:40:19;98878.31;;;8.02;100.00
34482;BME280;20720;48.886;9.388;2023-11-22T02:42:49;98875.66;;;7.23;100.00
34482;BME280;20720;48.886;9.388;2023-11-22T02:45:19;98867.97;;;7.46;100.00
34482;BME280;20720;48.886;9.388;2023-11-22T02:47:45;98861.44;;;7.42;100.00
34482;BME280;20720;48.886;9.388;2023-11-22T02:50:14;98871.63;;;7.92;100.00
34482;BME280;20720;48.886;9.388;2023-11-22T02:52:40;98873.66;;;7.74;100.00
34482;BME280;20720;48.886;9.388;2023-11-22T02:55:06;98877.66;;;7.92;100.00
34482;BME280;20720;48.886;9.388;2023-11-22T02:57:32;98886.38;;;6.48;100.00
34482;BME280;20720;48.886;9.388;2023-11-22T02:59:58;98891.50;;;7.22;100.00
34482;BME280;20720;48.886;9.388;2023-11-22T03:02:23;98898.03;;;6.86;100.00
34482;BME280;20720;48.886;9.388;2023-11-22T03:04:49;98896.34;;;6.68;100.00
34482;BME280;20720;48.886;9.388;2023-11-22T03:07:14;98903.53;;;6.66;100.00
34482;BME280;20720;48.886;9.388;2023-11-22T03:09:40;98904.41;;;6.99;100.00
34482;BME280;20720;48.886;9.388;2023-11-22T03:12:06;98894.13;;;6.90;100.00
34482;BME280;20720;48.886;9.388;2023-11-22T03:14:34;98904.56;;;7.62;100.00
34482;BME280;20720;48.886;9.388;2023-11-22T03:16:59;98914.50;;;8.37;100.00
34482;BME280;20720;48.886;9.388;2023-11-22T03:19:24;98916.06;;;8.46;100.00
34482;BME280;20720;48.886;9.388;2023-11-22T03:21:50;98923.53;;;7.40;100.00
34482;BME280;20720;48.886;9.388;2023-11-22T03:24:15;98927.13;;;7.15;100.00
34482;BME280;20720;48.886;9.388;2023-11-22T03:26:41;98938.88;;;7.43;100.00
34482;BME280;20720;48.886;9.388;2023-11-22T03:29:06;98941.16;;;7.70;100.00
34482;BME280;20720;48.886;9.388;2023-11-22T03:31:31;98940.81;;;7.25;100.00
34482;BME280;20720;48.886;9.388;2023-11-22T03:33:57;98949.19;;;8.31;100.00
34482;BME280;20720;48.886;9.388;2023-11-22T03:36:22;98949.31;;;7.59;100.00
34482;BME280;20720;48.886;9.388;2023-11-22T03:38:48;98963.13;;;6.29;100.00
34482;BME280;20720;48.886;9.388;2023-11-22T03:41:13;98963.19;;;7.84;100.00
34482;BME280;20720;48.886;9.388;2023-11-22T03:43:39;98972.16;;;8.05;100.00
34482;BME280;20720;48.886;9.388;2023-11-22T03:46:04;98973.16;;;7.16;100.00
34482;BME280;20720;48.886;9.388;2023-11-22T03:48:29;98972.38;;;7.31;100.00
34482;BME280;20720;48.886;9.388;2023-11-22T03:50:54;98979.06;;;7.42;100.00
34482;BME280;20720;48.886;9.388;2023-11-22T03:53:20;98982.75;;;6.41;100.00
34482;BME280;20720;48.886;9.388;2023-11-22T03:55:48;98983.03;;;5.61;100.00
34482;BME280;20720;48.886;9.388;2023-11-22T03:58:15;98992.09;;;7.18;100.00
34482;BME280;20720;48.886;9.388;2023-11-22T04:00:40;98984.94;;;7.84;100.00
34482;BME280;20720;48.886;9.388;2023-11-22T04:03:05;98989.91;;;6.39;100.00
34482;BME280;20720;48.886;9.388;2023-11-22T04:05:30;98993.59;;;6.62;100.00
34482;BME280;20720;48.886;9.388;2023-11-22T04:07:57;98980.16;;;6.49;100.00
34482;BME280;20720;48.886;9.388;2023-11-22T04:10:22;98984.38;;;7.00;100.00
34482;BME280;20720;48.886;9.388;2023-11-22T04:12:48;98991.47;;;7.24;100.00
34482;BME280;20720;48.886;9.388;2023-11-22T04:15:14;99000.31;;;7.55;100.00
34482;BME280;20720;48.886;9.388;2023-11-22T04:17:40;98999.00;;;7.51;100.00
34482;BME280;20720;48.886;9.388;2023-11-22T04:20:06;99006.59;;;7.04;100.00
34482;BME280;20720;48.886;9.388;2023-11-22T04:22:35;99014.66;;;7.91;100.00
34482;BME280;20720;48.886;9.388;2023-11-22T04:25:00;99014.03;;;7.57;100.00
34482;BME280;20720;48.886;9.388;2023-11-22T04:27:27;99015.31;;;7.21;100.00
34482;BME280;20720;48.886;9.388;2023-11-22T04:29:52;99019.59;;;7.54;100.00
34482;BME280;20720;48.886;9.388;2023-11-22T04:32:17;99025.59;;;7.22;100.00
34482;BME280;20720;48.886;9.388;2023-11-22T04:34:43;99025.56;;;6.56;100.00
34482;BME280;20720;48.886;9.388;2023-11-22T04:37:08;99029.44;;;6.19;100.00
34482;BME280;20720;48.886;9.388;2023-11-22T04:39:33;99023.38;;;6.86;100.00
34482;BME280;20720;48.886;9.388;2023-11-22T04:41:59;99039.38;;;6.83;100.00
34482;BME280;20720;48.886;9.388;2023-11-22T04:44:25;99036.13;;;6.97;100.00
34482;BME280;20720;48.886;9.388;2023-11-22T04:46:50;99050.41;;;6.09;100.00
34482;BME280;20720;48.886;9.388;2023-11-22T04:49:16;99053.78;;;6.27;100.00
34482;BME280;20720;48.886;9.388;2023-11-22T04:51:42;99046.06;;;7.43;100.00
34482;BME280;20720;48.886;9.388;2023-11-22T04:54:08;99047.38;;;7.95;100.00
34482;BME280;20720;48.886;9.388;2023-11-22T04:56:33;99060.72;;;7.28;100.00
34482;BME280;20720;48.886;9.388;2023-11-22T04:58:59;99062.97;;;5.88;100.00
34482;BME280;20720;48.886;9.388;2023-11-22T05:01:24;99063.38;;;6.27;100.00
34482;BME280;20720;48.886;9.388;2023-11-22T05:03:50;99062.50;;;7.11;100.00
34482;BME280;20720;48.886;9.388;2023-11-22T05:06:15;99069.56;;;7.43;100.00
34482;BME280;20720;48.886;9.388;2023-11-22T05:08:41;99075.88;;;6.41;100.00
34482;BME280;20720;48.886;9.388;2023-11-22T05:11:08;99085.69;;;6.21;100.00
34482;BME280;20720;48.886;9.388;2023-11-22T05:13:35;99082.91;;;7.16;100.00
34482;BME280;20720;48.886;9.388;2023-11-22T05:16:00;99089.47;;;6.52;100.00
34482;BME280;20720;48.886;9.388;2023-11-22T05:18:25;99085.03;;;6.79;100.00
34482;BME280;20720;48.886;9.388;2023-11-22T05:20:51;99090.81;;;6.56;100.00
34482;BME280;20720;48.886;9.388;2023-11-22T05:23:16;99090.75;;;6.48;100.00
34482;BME280;20720;48.886;9.388;2023-11-22T05:25:42;99103.91;;;6.39;100.00
34482;BME280;20720;48.886;9.388;2023-11-22T05:28:07;99101.44;;;6.97;100.00
34482;BME280;20720;48.886;9.388;2023-11-22T05:30:32;99095.28;;;7.06;100.00
34482;BME280;20720;48.886;9.388;2023-11-22T05:32:57;99091.69;;;7.89;100.00
34482;BME280;20720;48.886;9.388;2023-11-22T05:35:23;99091.50;;;7.58;100.00
34482;BME280;20720;48.886;9.388;2023-11-22T05:37:48;99090.41;;;7.11;100.00
34482;BME280;20720;48.886;9.388;2023-11-22T05:40:13;99098.34;;;7.59;100.00
34482;BME280;20720;48.886;9.388;2023-11-22T05:42:41;99099.53;;;8.13;100.00
34482;BME280;20720;48.886;9.388;2023-11-22T05:45:07;99101.00;;;8.23;100.00
34482;BME280;20720;48.886;9.388;2023-11-22T05:47:33;99101.66;;;8.09;100.00
34482;BME280;20720;48.886;9.388;2023-11-22T05:49:58;99097.72;;;8.21;100.00
34482;BME280;20720;48.886;9.388;2023-11-22T05:52:23;99112.03;;;6.10;100.00
34482;BME280;20720;48.886;9.388;2023-11-22T05:54:49;99113.16;;;6.33;100.00
34482;BME280;20720;48.886;9.388;2023-11-22T05:57:14;99114.34;;;6.39;100.00
34482;BME280;20720;48.886;9.388;2023-11-22T05:59:40;99116.69;;;6.76;100.00
34482;BME280;20720;48.886;9.388;2023-11-22T06:02:05;99139.84;;;5.84;100.00
34482;BME280;20720;48.886;9.388;2023-11-22T06:04:31;99133.53;;;7.15;100.00
34482;BME280;20720;48.886;9.388;2023-11-22T06:06:56;99136.44;;;7.61;100.00
34482;BME280;20720;48.886;9.388;2023-11-22T06:09:22;99141.53;;;7.71;100.00
34482;BME280;20720;48.886;9.388;2023-11-22T06:11:48;99143.56;;;8.17;100.00
34482;BME280;20720;48.886;9.388;2023-11-22T06:14:13;99146.97;;;8.18;100.00
34482;BME280;20720;48.886;9.388;2023-11-22T06:16:38;99157.44;;;6.68;100.00
34482;BME280;20720;48.886;9.388;2023-11-22T06:19:04;99158.00;;;7.14;100.00
34482;BME280;20720;48.886;9.388;2023-11-22T06:21:29;99158.50;;;7.67;100.00
34482;BME280;20720;48.886;9.388;2023-11-22T06:23:54;99166.19;;;7.60;100.00
34482;BME280;20720;48.886;9.388;2023-11-22T06:26:23;99176.44;;;7.12;100.00
34482;BME280;20720;48.886;9.388;2023-11-22T06:28:48;99179.66;;;6.73;100.00
34482;BME280;20720;48.886;9.388;2023-11-22T06:31:14;99179.94;;;7.29;100.00
34482;BME280;20720;48.886;9.388;2023-11-22T06:33:39;99180.88;;;6.60;100.00
34482;BME280;20720;48.886;9.388;2023-11-22T06:36:05;99175.09;;;7.34;100.00
34482;BME280;20720;48.886;9.388;2023-11-22T06:38:30;99170.38;;;8.27;100.00
34482;BME280;20720;48.886;9.388;2023-11-22T06:40:55;99166.78;;;8.61;100.00
34482;BME280;20720;48.886;9.388;2023-11-22T06:43:21;99172.31;;;8.74;100.00
34482;BME280;20720;48.886;9.388;2023-11-22T06:45:47;99176.22;;;8.94;100.00
34482;BME280;20720;48.886;9.388;2023-11-22T06:48:13;99184.06;;;7.97;100.00
34482;BME280;20720;48.886;9.388;2023-11-22T06:50:38;99191.66;;;8.57;100.00
34482;BME280;20720;48.886;9.388;2023-11-22T06:53:03;99192.09;;;8.92;100.00
34482;BME280;20720;48.886;9.388;2023-11-22T06:55:29;99192.94;;;8.93;100.00
34482;BME280;20720;48.886;9.388;2023-11-22T06:57:56;99189.78;;;8.97;100.00
34482;BME280;20720;48.886;9.388;2023-11-22T07:00:21;99197.22;;;8.37;100.00
34482;BME280;20720;48.886;9.388;2023-11-22T07:02:46;99198.50;;;8.17;100.00
34482;BME280;20720;48.886;9.388;2023-11-22T07:05:12;99198.22;;;7.71;100.00
34482;BME280;20720;48.886;9.388;2023-11-22T07:07:38;99198.22;;;8.44;100.00
34482;BME280;20720;48.886;9.388;2023-11-22T07:10:04;99207.38;;;8.24;100.00
34482;BME280;20720;48.886;9.388;2023-11-22T07:12:31;99202.78;;;8.26;100.00
34482;BME280;20720;48.886;9.388;2023-11-22T07:14:56;99202.56;;;8.04;100.00
34482;BME280;20720;48.886;9.388;2023-11-22T07:17:22;99201.69;;;7.71;100.00
34482;BME280;20720;48.886;9.388;2023-11-22T07:19:48;99211.06;;;8.14;100.00
34482;BME280;20720;48.886;9.388;2023-11-22T07:22:14;99212.78;;;7.65;100.00
34482;BME280;20720;48.886;9.388;2023-11-22T07:24:45;99226.03;;;7.72;100.00
34482;BME280;20720;48.886;9.388;2023-11-22T07:27:11;99223.69;;;8.02;100.00
34482;BME280;20720;48.886;9.388;2023-11-22T07:29:39;99237.31;;;7.30;100.00
34482;BME280;20720;48.886;9.388;2023-11-22T07:32:05;99245.78;;;6.55;100.00
34482;BME280;20720;48.886;9.388;2023-11-22T07:34:32;99254.59;;;6.98;100.00
34482;BME280;20720;48.886;9.388;2023-11-22T07:36:58;99261.91;;;7.20;100.00
34482;BME280;20720;48.886;9.388;2023-11-22T07:39:23;99267.50;;;6.56;100.00
34482;BME280;20720;48.886;9.388;2023-11-22T07:41:52;99271.81;;;6.65;100.00
34482;BME280;20720;48.886;9.388;2023-11-22T07:44:18;99277.53;;;6.86;100.00
34482;BME280;20720;48.886;9.388;2023-11-22T07:46:43;99281.13;;;6.50;100.00
34482;BME280;20720;48.886;9.388;2023-11-22T07:49:09;99284.88;;;6.30;100.00
34482;BME280;20720;48.886;9.388;2023-11-22T07:51:35;99281.31;;;5.86;100.00
34482;BME280;20720;48.886;9.388;2023-11-22T07:54:02;99290.34;;;5.45;100.00
34482;BME280;20720;48.886;9.388;2023-11-22T07:56:28;99286.84;;;6.01;100.00
34482;BME280;20720;48.886;9.388;2023-11-22T07:58:54;99281.50;;;6.20;100.00
34482;BME280;20720;48.886;9.388;2023-11-22T08:01:19;99287.41;;;6.39;100.00
34482;BME280;20720;48.886;9.388;2023-11-22T08:03:44;99289.31;;;6.73;100.00
34482;BME280;20720;48.886;9.388;2023-11-22T08:06:11;99296.31;;;5.65;100.00
34482;BME280;20720;48.886;9.388;2023-11-22T08:08:36;99297.00;;;5.67;100.00
34482;BME280;20720;48.886;9.388;2023-11-22T08:11:05;99293.69;;;4.92;100.00
34482;BME280;20720;48.886;9.388;2023-11-22T08:13:30;99293.38;;;5.50;100.00
34482;BME280;20720;48.886;9.388;2023-11-22T08:15:55;99291.22;;;5.36;100.00
34482;BME280;20720;48.886;9.388;2023-11-22T08:18:21;99292.59;;;5.40;100.00
34482;BME280;20720;48.886;9.388;2023-11-22T08:20:47;99294.56;;;5.65;100.00
34482;BME280;20720;48.886;9.388;2023-11-22T08:23:12;99298.97;;;5.92;100.00
34482;BME280;20720;48.886;9.388;2023-11-22T08:25:40;99302.75;;;5.34;100.00
34482;BME280;20720;48.886;9.388;2023-11-22T08:28:06;99307.47;;;5.94;100.00
34482;BME280;20720;48.886;9.388;2023-11-22T08:30:33;99306.31;;;5.33;100.00
34482;BME280;20720;48.886;9.388;2023-11-22T08:33:00;99307.75;;;5.91;100.00
34482;BME280;20720;48.886;9.388;2023-11-22T08:35:25;99308.63;;;5.36;100.00
34482;BME280;20720;48.886;9.388;2023-11-22T08:37:51;99304.88;;;5.94;100.00
34482;BME280;20720;48.886;9.388;2023-11-22T08:40:17;99303.34;;;6.36;100.00
34482;BME280;20720;48.886;9.388;2023-11-22T08:42:46;99309.28;;;4.92;100.00
34482;BME280;20720;48.886;9.388;2023-11-22T08:45:11;99308.31;;;4.93;100.00
34482;BME280;20720;48.886;9.388;2023-11-22T08:47:37;99300.56;;;5.29;100.00
34482;BME280;20720;48.886;9.388;2023-11-22T08:50:03;99295.09;;;5.23;100.00
34482;BME280;20720;48.886;9.388;2023-11-22T08:52:29;99305.19;;;5.45;100.00
34482;BME280;20720;48.886;9.388;2023-11-22T08:54:56;99304.19;;;5.00;100.00
34482;BME280;20720;48.886;9.388;2023-11-22T08:57:21;99305.19;;;5.72;100.00
34482;BME280;20720;48.886;9.388;2023-11-22T08:59:46;99301.75;;;4.69;100.00
34482;BME280;20720;48.886;9.388;2023-11-22T09:02:12;99291.09;;;5.28;100.00
34482;BME280;20720;48.886;9.388;2023-11-22T09:04:38;99288.56;;;6.10;100.00
34482;BME280;20720;48.886;9.388;2023-11-22T09:07:03;99297.03;;;5.21;100.00
34482;BME280;20720;48.886;9.388;2023-11-22T09:09:31;99291.59;;;5.05;100.00
34482;BME280;20720;48.886;9.388;2023-11-22T09:11:57;99295.91;;;5.97;100.00
34482;BME280;20720;48.886;9.388;2023-11-22T09:14:23;99290.81;;;4.56;100.00
34482;BME280;20720;48.886;9.388;2023-11-22T09:16:49;99295.94;;;5.14;100.00
34482;BME280;20720;48.886;9.388;2023-11-22T09:19:20;99291.84;;;5.02;100.00
34482;BME280;20720;48.886;9.388;2023-11-22T09:21:45;99304.91;;;6.29;100.00
34482;BME280;20720;48.886;9.388;2023-11-22T09:24:11;99310.41;;;5.45;100.00
34482;BME280;20720;48.886;9.388;2023-11-22T09:26:37;99314.44;;;6.21;100.00
34482;BME280;20720;48.886;9.388;2023-11-22T09:29:03;99315.72;;;5.90;100.00
34482;BME280;20720;48.886;9.388;2023-11-22T09:31:29;99312.44;;;6.15;100.00
34482;BME280;20720;48.886;9.388;2023-11-22T09:33:54;99326.06;;;6.09;100.00
34482;BME280;20720;48.886;9.388;2023-11-22T09:36:21;99319.25;;;5.61;100.00
34482;BME280;20720;48.886;9.388;2023-11-22T09:38:47;99324.94;;;5.84;100.00
34482;BME280;20720;48.886;9.388;2023-11-22T09:41:12;99317.03;;;7.09;100.00
34482;BME280;20720;48.886;9.388;2023-11-22T09:43:38;99323.22;;;5.65;100.00
34482;BME280;20720;48.886;9.388;2023-11-22T09:46:05;99325.78;;;5.29;100.00
34482;BME280;20720;48.886;9.388;2023-11-22T09:48:31;99332.41;;;5.69;100.00
34482;BME280;20720;48.886;9.388;2023-11-22T09:53:36;99341.09;;;6.59;100.00
34482;BME280;20720;48.886;9.388;2023-11-22T09:56:04;99343.00;;;5.95;100.00
34482;BME280;20720;48.886;9.388;2023-11-22T09:58:33;99346.94;;;5.16;100.00
34482;BME280;20720;48.886;9.388;2023-11-22T10:00:59;99369.94;;;6.40;100.00
34482;BME280;20720;48.886;9.388;2023-11-22T10:03:26;99371.63;;;5.68;100.00
34482;BME280;20720;48.886;9.388;2023-11-22T10:05:51;99372.13;;;5.81;100.00
34482;BME280;20720;48.886;9.388;2023-11-22T10:08:17;99376.03;;;6.31;100.00
34482;BME280;20720;48.886;9.388;2023-11-22T10:10:44;99375.78;;;7.48;100.00
34482;BME280;20720;48.886;9.388;2023-11-22T10:13:13;99381.88;;;6.16;100.00
34482;BME280;20720;48.886;9.388;2023-11-22T10:15:38;99385.75;;;6.39;100.00
34482;BME280;20720;48.886;9.388;2023-11-22T10:18:03;99379.78;;;6.46;100.00
34482;BME280;20720;48.886;9.388;2023-11-22T10:20:42;99388.88;;;5.88;100.00
34482;BME280;20720;48.886;9.388;2023-11-22T10:23:08;99381.47;;;5.74;100.00
34482;BME280;20720;48.886;9.388;2023-11-22T10:25:36;99390.97;;;5.85;100.00
34482;BME280;20720;48.886;9.388;2023-11-22T10:28:01;99384.22;;;5.17;100.00
34482;BME280;20720;48.886;9.388;2023-11-22T10:30:27;99376.13;;;5.85;100.00
34482;BME280;20720;48.886;9.388;2023-11-22T10:32:53;99381.03;;;5.42;100.00
34482;BME280;20720;48.886;9.388;2023-11-22T10:35:20;99375.97;;;5.31;100.00
34482;BME280;20720;48.886;9.388;2023-11-22T10:37:47;99376.53;;;5.06;100.00
34482;BME280;20720;48.886;9.388;2023-11-22T10:40:13;99374.31;;;5.95;100.00
34482;BME280;20720;48.886;9.388;2023-11-22T10:42:40;99377.34;;;5.35;100.00
34482;BME280;20720;48.886;9.388;2023-11-22T10:45:07;99369.03;;;5.58;100.00
34482;BME280;20720;48.886;9.388;2023-11-22T10:47:36;99373.91;;;6.44;100.00
34482;BME280;20720;48.886;9.388;2023-11-22T10:50:03;99375.84;;;7.13;98.43
34482;BME280;20720;48.886;9.388;2023-11-22T10:52:29;99382.66;;;6.26;100.00
34482;BME280;20720;48.886;9.388;2023-11-22T10:55:01;99380.50;;;7.70;96.08
34482;BME280;20720;48.886;9.388;2023-11-22T10:57:31;99384.81;;;6.30;100.00
34482;BME280;20720;48.886;9.388;2023-11-22T11:00:00;99386.50;;;7.19;99.59
34482;BME280;20720;48.886;9.388;2023-11-22T11:02:32;99386.59;;;6.39;99.09
34482;BME280;20720;48.886;9.388;2023-11-22T11:05:06;99385.44;;;6.87;100.00
34482;BME280;20720;48.886;9.388;2023-11-22T11:07:40;99391.50;;;7.30;96.99
34482;BME280;20720;48.886;9.388;2023-11-22T11:10:09;99401.94;;;7.74;90.65
34482;BME280;20720;48.886;9.388;2023-11-22T11:12:37;99400.41;;;7.02;92.57
34482;BME280;20720;48.886;9.388;2023-11-22T11:15:03;99405.81;;;6.83;95.91
34482;BME280;20720;48.886;9.388;2023-11-22T11:17:29;99413.19;;;7.23;97.03
34482;BME280;20720;48.886;9.388;2023-11-22T11:19:54;99411.75;;;8.05;91.62
34482;BME280;20720;48.886;9.388;2023-11-22T11:22:21;99414.97;;;6.70;94.28
34482;BME280;20720;48.886;9.388;2023-11-22T11:24:47;99404.59;;;7.56;93.03
34482;BME280;20720;48.886;9.388;2023-11-22T11:27:13;99407.97;;;7.74;88.19
34482;BME280;20720;48.886;9.388;2023-11-22T11:29:38;99400.69;;;7.60;93.96
34482;BME280;20720;48.886;9.388;2023-11-22T11:32:14;99406.31;;;8.24;88.90
34482;BME280;20720;48.886;9.388;2023-11-22T11:34:47;99411.41;;;7.49;89.91
34482;BME280;20720;48.886;9.388;2023-11-22T11:37:14;99410.00;;;6.49;93.78
34482;BME280;20720;48.886;9.388;2023-11-22T11:39:40;99398.63;;;7.97;90.42
34482;BME280;20720;48.886;9.388;2023-11-22T11:42:12;99405.97;;;7.25;91.04
34482;BME280;20720;48.886;9.388;2023-11-22T11:45:11;99414.31;;;6.40;97.81
34482;BME280;20720;48.886;9.388;2023-11-22T11:47:35;99423.41;;;6.81;93.81
34482;BME280;20720;48.886;9.388;2023-11-22T11:50:01;99428.63;;;6.99;93.05
34482;BME280;20720;48.886;9.388;2023-11-22T11:52:27;99438.91;;;7.53;93.65
34482;BME280;20720;48.886;9.388;2023-11-22T11:54:52;99434.81;;;8.35;88.53
34482;BME280;20720;48.886;9.388;2023-11-22T11:57:18;99434.00;;;8.93;85.92
34482;BME280;20720;48.886;9.388;2023-11-22T11:59:44;99441.09;;;7.91;85.75
34482;BME280;20720;48.886;9.388;2023-11-22T12:02:11;99443.50;;;8.36;86.12
34482;BME280;20720;48.886;9.388;2023-11-22T12:04:36;99444.06;;;6.75;84.64
34482;BME280;20720;48.886;9.388;2023-11-22T12:07:02;99452.31;;;6.70;88.67
34482;BME280;20720;48.886;9.388;2023-11-22T12:09:27;99461.13;;;8.00;86.64
34482;BME280;20720;48.886;9.388;2023-11-22T12:11:54;99450.63;;;7.49;86.77
34482;BME280;20720;48.886;9.388;2023-11-22T12:14:20;99457.81;;;7.73;86.63
34482;BME280;20720;48.886;9.388;2023-11-22T12:16:47;99461.19;;;8.16;84.09
34482;BME280;20720;48.886;9.388;2023-11-22T12:19:23;99470.72;;;6.14;89.31
34482;BME280;20720;48.886;9.388;2023-11-22T12:21:48;99478.69;;;6.77;88.69
34482;BME280;20720;48.886;9.388;2023-11-22T12:24:14;99486.13;;;6.72;89.31
34482;BME280;20720;48.886;9.388;2023-11-22T12:26:44;99479.31;;;7.41;86.87
34482;BME280;20720;48.886;9.388;2023-11-22T12:29:12;99487.63;;;6.47;90.10
34482;BME280;20720;48.886;9.388;2023-11-22T12:31:44;99495.97;;;6.23;88.91
34482;BME280;20720;48.886;9.388;2023-11-22T12:34:11;99486.44;;;5.76;89.44
34482;BME280;20720;48.886;9.388;2023-11-22T12:36:37;99479.47;;;5.86;89.28
34482;BME280;20720;48.886;9.388;2023-11-22T12:39:02;99482.06;;;5.86;89.76
34482;BME280;20720;48.886;9.388;2023-11-22T12:41:30;99478.75;;;6.30;88.50
34482;BME280;20720;48.886;9.388;2023-11-22T12:44:05;99472.28;;;6.34;87.75
34482;BME280;20720;48.886;9.388;2023-11-22T12:46:48;99474.03;;;6.71;88.84
34482;BME280;20720;48.886;9.388;2023-11-22T12:49:15;99468.91;;;6.51;88.41
34482;BME280;20720;48.886;9.388;2023-11-22T12:51:53;99463.81;;;7.65;86.48
34482;BME280;20720;48.886;9.388;2023-11-22T12:54:19;99460.22;;;7.23;85.71
34482;BME280;20720;48.886;9.388;2023-11-22T12:56:55;99462.72;;;6.80;87.05
34482;BME280;20720;48.886;9.388;2023-11-22T12:59:23;99460.97;;;6.71;88.84
34482;BME280;20720;48.886;9.388;2023-11-22T13:01:49;99446.97;;;7.42;86.12